Time;durP1;ratioP1;P1;durP2;ratioP2;P2;SDS_P1;SDS_P2;PMS_P1;PMS_P2;Temp;Humidity;BMP_temperature;BMP_pressure;BME280_temperature;BME280_humidity;BME280_pressure;Samples;Min_cycle;Max_cycle;Signal;HPM_P1;HPM_P2
2023/07/13 00:00:37;;;;;;;6.82;2.00;;;17.50;99.90;;;;;;5092791;28;20082;-67
2023/07/13 00:03:04;;;;;;;8.80;2.07;;;17.60;99.90;;;;;;5095259;28;20355;-66
2023/07/13 00:05:30;;;;;;;;;;;17.60;99.90;;;;;;5098114;28;20032;-72
2023/07/13 00:07:55;;;;;;;4.00;1.85;;;17.60;99.90;;;;;;5097305;28;20021;-66
2023/07/13 00:10:22;;;;;;;6.90;2.10;;;17.50;99.90;;;;;;5097836;28;20427;-66
2023/07/13 00:12:49;;;;;;;7.68;1.65;;;17.50;99.90;;;;;;5095931;28;20024;-66
2023/07/13 00:15:22;;;;;;;;;;;17.50;99.90;;;;;;5096667;28;20038;-87
2023/07/13 00:17:55;;;;;;;9.00;2.65;;;17.50;99.90;;;;;;5097174;28;19987;-66
2023/07/13 00:20:24;;;;;;;6.20;2.28;;;17.40;99.90;;;;;;5097085;28;20123;-66
2023/07/13 00:22:52;;;;;;;6.25;1.85;;;17.40;99.90;;;;;;5096765;28;20441;-70
2023/07/13 00:25:18;;;;;;;10.05;2.70;;;17.30;99.90;;;;;;5096736;28;20040;-66
2023/07/13 00:27:44;;;;;;;14.07;2.55;;;17.30;99.90;;;;;;5097620;28;20055;-67
2023/07/13 00:30:11;;;;;;;16.83;2.83;;;17.30;99.90;;;;;;5097029;28;21369;-76
2023/07/13 00:32:38;;;;;;;11.50;2.65;;;17.30;99.90;;;;;;5097128;28;20283;-66
2023/07/13 00:35:04;;;;;;;7.28;2.30;;;17.30;99.90;;;;;;5096535;28;20024;-66
2023/07/13 00:37:30;;;;;;;9.98;2.58;;;17.30;99.90;;;;;;5097417;28;20024;-67
2023/07/13 00:39:56;;;;;;;7.07;2.10;;;17.30;99.90;;;;;;5096976;28;20028;-67
2023/07/13 00:42:22;;;;;;;11.23;2.90;;;17.20;99.90;;;;;;5095729;28;20028;-66
2023/07/13 00:45:13;;;;;;;9.53;2.50;;;17.20;99.90;;;;;;5094585;28;20103;-66
2023/07/13 00:47:40;;;;;;;17.15;2.67;;;17.20;99.90;;;;;;5096004;28;22538;-66
2023/07/13 00:50:12;;;;;;;17.38;2.63;;;17.20;99.90;;;;;;5096552;28;20076;-66
2023/07/13 00:52:41;;;;;;;9.70;2.55;;;17.20;99.90;;;;;;5092987;28;20020;-85
2023/07/13 00:55:09;;;;;;;10.18;2.67;;;17.20;99.90;;;;;;5095163;28;20028;-67
2023/07/13 00:57:35;;;;;;;11.35;2.47;;;17.20;99.90;;;;;;5092450;28;20063;-66
2023/07/13 01:00:08;;;;;;;6.00;2.53;;;17.20;99.90;;;;;;5075403;28;20107;-66
2023/07/13 01:02:37;;;;;;;4.88;1.85;;;17.20;99.90;;;;;;5092311;28;20530;-66
2023/07/13 01:05:24;;;;;;;10.15;1.73;;;17.10;99.90;;;;;;5090635;28;20415;-66
2023/07/13 01:07:51;;;;;;;7.90;2.50;;;17.10;99.90;;;;;;5089008;28;20024;-86
2023/07/13 01:10:22;;;;;;;10.13;2.75;;;17.10;99.90;;;;;;5095556;28;20032;-66
2023/07/13 01:12:48;;;;;;;13.13;2.40;;;17.00;99.90;;;;;;5095810;28;20024;-66
2023/07/13 01:15:54;;;;;;;9.83;2.87;;;17.10;99.90;;;;;;5091547;28;20020;-67
2023/07/13 01:18:26;;;;;;;12.55;2.80;;;17.10;99.90;;;;;;5009858;28;20030;-87
2023/07/13 01:20:57;;;;;;;11.65;2.80;;;17.10;99.90;;;;;;4997173;28;20128;-86
2023/07/13 01:23:24;;;;;;;6.32;2.03;;;17.10;99.90;;;;;;5014615;28;20084;-66
2023/07/13 01:25:51;;;;;;;6.38;2.33;;;17.10;99.90;;;;;;5013924;28;20045;-66
2023/07/13 01:28:16;;;;;;;;;;;17.10;99.90;;;;;;5015004;28;20041;-67
2023/07/13 01:30:45;;;;;;;12.13;2.20;;;17.10;99.90;;;;;;5013982;28;20204;-66
2023/07/13 01:33:12;;;;;;;12.32;2.55;;;17.10;99.90;;;;;;5007590;28;20030;-66
2023/07/13 01:35:39;;;;;;;13.95;2.42;;;17.10;99.90;;;;;;5014471;28;20045;-66
2023/07/13 01:38:05;;;;;;;11.45;2.63;;;17.10;99.90;;;;;;4996851;28;20092;-67
2023/07/13 01:40:31;;;;;;;8.63;2.53;;;17.00;99.90;;;;;;5014442;28;20069;-66
2023/07/13 01:42:59;;;;;;;10.07;1.95;;;17.00;99.90;;;;;;5013232;28;20144;-66
2023/07/13 01:45:24;;;;;;;7.90;1.77;;;17.00;99.90;;;;;;5014097;28;20112;-67
2023/07/13 01:47:50;;;;;;;7.07;2.50;;;16.90;99.90;;;;;;5014700;28;20175;-66
2023/07/13 01:50:16;;;;;;;11.57;2.60;;;16.90;99.90;;;;;;5093174;28;20115;-66
2023/07/13 01:52:42;;;;;;;8.27;2.20;;;16.90;99.90;;;;;;5094695;28;20326;-67
2023/07/13 01:55:08;;;;;;;10.35;2.25;;;16.80;99.90;;;;;;5093477;28;20028;-67
2023/07/13 01:57:34;;;;;;;9.40;2.50;;;16.80;99.90;;;;;;5093874;28;20024;-66
2023/07/13 02:00:04;;;;;;;8.27;2.00;;;16.80;99.90;;;;;;5093945;28;20038;-66
2023/07/13 02:02:30;;;;;;;6.93;1.70;;;16.80;99.90;;;;;;5094071;28;20311;-75
2023/07/13 02:04:56;;;;;;;7.53;1.65;;;16.70;99.90;;;;;;5095885;28;20506;-66
2023/07/13 02:07:22;;;;;;;10.40;1.97;;;16.70;99.90;;;;;;5087983;28;20028;-66
2023/07/13 02:09:48;;;;;;;9.93;1.93;;;16.70;99.90;;;;;;5072617;28;20373;-66
2023/07/13 02:12:13;;;;;;;10.23;1.73;;;16.70;99.90;;;;;;5094452;28;20028;-66
2023/07/13 02:14:39;;;;;;;6.70;1.50;;;16.60;99.90;;;;;;5094325;28;20040;-66
2023/07/13 02:17:05;;;;;;;14.60;2.43;;;16.60;99.90;;;;;;5093156;28;20352;-65
2023/07/13 02:19:32;;;;;;;7.10;1.45;;;16.60;99.90;;;;;;5093178;28;20358;-66
2023/07/13 02:21:58;;;;;;;9.57;2.25;;;16.50;99.90;;;;;;5076880;28;20036;-66
2023/07/13 02:24:24;;;;;;;4.13;1.45;;;16.50;99.90;;;;;;5100329;28;20032;-66
2023/07/13 02:26:49;;;;;;;4.40;1.42;;;16.40;99.90;;;;;;5095336;28;20039;-72
2023/07/13 02:29:16;;;;;;;6.00;1.47;;;16.40;99.90;;;;;;5076790;28;20031;-67
2023/07/13 02:31:41;;;;;;;11.77;1.38;;;16.40;99.90;;;;;;5094848;28;20422;-66
2023/07/13 02:34:07;;;;;;;3.93;1.43;;;16.40;99.90;;;;;;5076189;28;20032;-66
2023/07/13 02:36:33;;;;;;;7.70;1.70;;;16.40;99.90;;;;;;5095217;28;20032;-66
2023/07/13 02:39:01;;;;;;;9.03;2.10;;;16.30;99.90;;;;;;5095394;28;20024;-67
2023/07/13 02:41:27;;;;;;;7.10;1.13;;;16.30;99.90;;;;;;5094269;28;20142;-66
2023/07/13 02:43:53;;;;;;;5.63;1.63;;;16.30;99.90;;;;;;5076802;28;20099;-66
2023/07/13 02:46:19;;;;;;;6.47;0.98;;;16.30;99.90;;;;;;5094213;28;20050;-67
2023/07/13 02:48:45;;;;;;;1.33;0.75;;;16.30;99.90;;;;;;5094812;28;20411;-67
2023/07/13 02:51:11;;;;;;;1.48;0.57;;;16.30;99.90;;;;;;5090680;28;20146;-67
2023/07/13 02:53:37;;;;;;;7.20;1.33;;;16.30;99.90;;;;;;5094329;28;20111;-67
2023/07/13 02:56:04;;;;;;;8.27;1.13;;;16.30;99.90;;;;;;5094655;28;20032;-67
2023/07/13 02:58:30;;;;;;;6.07;1.63;;;16.30;99.90;;;;;;5091803;28;20035;-67
2023/07/13 03:00:57;;;;;;;5.50;1.47;;;16.30;99.90;;;;;;5094568;28;20036;-67
2023/07/13 03:03:23;;;;;;;11.15;2.20;;;16.40;99.90;;;;;;5093629;28;20032;-75
2023/07/13 03:05:59;;;;;;;11.38;1.67;;;16.30;99.90;;;;;;5094834;28;20107;-67
2023/07/13 03:08:25;;;;;;;5.90;1.33;;;16.40;99.90;;;;;;5089406;28;20407;-66
2023/07/13 03:11:03;;;;;;;5.43;1.17;;;16.30;99.90;;;;;;5092871;28;20055;-67
2023/07/13 03:13:28;;;;;;;3.50;1.67;;;16.30;99.90;;;;;;5072953;28;20085;-67
2023/07/13 03:15:54;;;;;;;4.70;2.00;;;16.30;99.90;;;;;;5094034;28;20020;-67
2023/07/13 03:18:20;;;;;;;7.37;1.77;;;16.30;99.90;;;;;;5092826;28;20023;-66
2023/07/13 03:20:46;;;;;;;5.10;1.63;;;16.30;99.90;;;;;;5093793;28;20024;-67
2023/07/13 03:23:12;;;;;;;4.90;1.40;;;16.30;99.90;;;;;;5092709;28;20056;-66
2023/07/13 03:25:38;;;;;;;2.20;1.40;;;16.30;99.90;;;;;;5093975;28;20387;-66
2023/07/13 03:28:05;;;;;;;4.97;1.23;;;16.30;99.90;;;;;;5094400;28;20056;-87
2023/07/13 03:30:31;;;;;;;4.10;0.90;;;16.30;99.90;;;;;;5094205;28;20024;-67
2023/07/13 03:32:57;;;;;;;7.40;1.37;;;16.30;99.90;;;;;;5076118;28;20074;-67
2023/07/13 03:35:22;;;;;;;5.28;1.10;;;16.30;99.90;;;;;;5094368;28;20021;-66
2023/07/13 03:37:48;;;;;;;7.13;1.30;;;16.20;99.90;;;;;;5093926;28;20039;-66
2023/07/13 03:40:14;;;;;;;3.50;1.33;;;16.20;99.90;;;;;;5094303;28;20020;-67
2023/07/13 03:42:40;;;;;;;4.28;0.95;;;16.20;99.90;;;;;;5093846;28;20066;-66
2023/07/13 03:45:07;;;;;;;5.23;1.33;;;16.20;99.90;;;;;;5094449;28;20024;-66
2023/07/13 03:47:33;;;;;;;2.13;0.95;;;16.20;99.90;;;;;;5091330;28;20036;-67
2023/07/13 03:49:59;;;;;;;4.80;1.10;;;16.20;99.90;;;;;;5106509;28;20023;-66
2023/07/13 03:52:25;;;;;;;7.10;1.33;;;16.20;99.90;;;;;;5094502;28;20024;-66
2023/07/13 03:54:51;;;;;;;8.07;1.20;;;16.20;99.90;;;;;;5093912;28;20062;-87
2023/07/13 03:57:18;;;;;;;2.80;1.07;;;16.20;99.90;;;;;;5094488;28;20028;-67
2023/07/13 03:59:43;;;;;;;;;;;16.20;99.90;;;;;;5088395;28;20408;-66
2023/07/13 04:02:10;;;;;;;4.00;1.10;;;16.20;99.90;;;;;;5092790;28;19957;-66
2023/07/13 04:04:36;;;;;;;6.28;1.75;;;16.20;99.90;;;;;;5093569;28;20677;-66
2023/07/13 04:07:01;;;;;;;4.43;0.67;;;16.20;99.90;;;;;;5091497;28;20042;-67
2023/07/13 04:09:27;;;;;;;8.63;1.43;;;16.20;99.90;;;;;;5092030;28;20433;-66
2023/07/13 04:11:53;;;;;;;1.50;0.90;;;16.20;99.90;;;;;;5089777;28;20378;-89
2023/07/13 04:14:19;;;;;;;5.00;1.70;;;16.20;99.90;;;;;;5093112;28;20055;-67
2023/07/13 04:16:45;;;;;;;6.70;1.47;;;16.30;99.90;;;;;;5077848;28;20020;-66
2023/07/13 04:19:13;;;;;;;2.70;1.30;;;16.30;99.90;;;;;;5096427;28;20040;-66
2023/07/13 04:21:39;;;;;;;1.50;0.80;;;16.30;99.90;;;;;;5091864;28;20035;-67
2023/07/13 04:24:05;;;;;;;12.67;2.00;;;16.40;99.90;;;;;;5095157;28;20032;-66
2023/07/13 04:26:31;;;;;;;5.23;2.20;;;16.50;99.90;;;;;;5096277;28;20439;-66
2023/07/13 04:28:57;;;;;;;3.83;1.53;;;16.40;99.90;;;;;;5095723;28;20562;-81
2023/07/13 04:31:23;;;;;;;2.75;1.13;;;16.50;99.90;;;;;;5096558;28;20032;-67
2023/07/13 04:33:50;;;;;;;4.53;1.63;;;16.40;99.90;;;;;;5096729;28;20035;-67
2023/07/13 04:36:16;;;;;;;5.38;1.60;;;16.40;99.90;;;;;;5094980;28;20448;-66
2023/07/13 04:38:42;;;;;;;5.30;1.65;;;16.40;99.90;;;;;;5096790;28;20382;-66
2023/07/13 04:41:09;;;;;;;5.22;1.35;;;16.30;99.90;;;;;;5094890;28;20429;-67
2023/07/13 04:43:35;;;;;;;5.85;1.48;;;16.40;99.90;;;;;;5096469;28;20028;-66
2023/07/13 04:46:06;;;;;;;7.50;1.80;;;16.40;99.90;;;;;;5094327;28;20032;-67
2023/07/13 04:48:33;;;;;;;6.55;2.03;;;16.40;99.90;;;;;;5096292;28;20458;-66
2023/07/13 04:50:59;;;;;;;8.80;1.77;;;16.50;99.90;;;;;;5072628;28;20169;-66
2023/07/13 04:53:26;;;;;;;5.63;1.63;;;16.50;99.90;;;;;;5094596;28;20032;-85
2023/07/13 04:55:52;;;;;;;7.00;1.77;;;16.50;99.90;;;;;;5096783;28;20032;-66
2023/07/13 04:58:18;;;;;;;6.38;1.40;;;16.50;99.90;;;;;;5096308;28;20024;-66
2023/07/13 05:00:44;;;;;;;6.38;2.10;;;16.50;99.90;;;;;;5095011;28;20030;-66
2023/07/13 05:03:10;;;;;;;10.30;2.60;;;16.60;99.90;;;;;;5075616;28;20040;-91
2023/07/13 05:05:36;;;;;;;6.13;1.60;;;16.60;99.90;;;;;;5094535;28;20024;-66
2023/07/13 05:08:02;;;;;;;9.98;2.63;;;16.70;99.90;;;;;;5093830;28;20042;-66
2023/07/13 05:10:28;;;;;;;7.43;2.73;;;16.70;99.90;;;;;;5094449;28;20020;-66
2023/07/13 05:12:54;;;;;;;8.15;2.67;;;16.70;99.90;;;;;;5095103;28;20020;-66
2023/07/13 05:15:24;;;;;;;12.33;2.30;;;16.70;99.90;;;;;;5076088;28;20491;-66
2023/07/13 05:17:49;;;;;;;9.07;2.03;;;16.80;99.90;;;;;;5095286;28;20301;-66
2023/07/13 05:20:17;;;;;;;7.77;1.93;;;16.80;99.90;;;;;;5095802;28;20328;-66
2023/07/13 05:22:43;;;;;;;2.88;1.83;;;16.90;99.90;;;;;;5096079;28;20271;-65
2023/07/13 05:25:09;;;;;;;5.10;2.08;;;16.90;99.90;;;;;;5095300;28;20173;-66
2023/07/13 05:27:36;;;;;;;11.35;2.63;;;16.90;99.90;;;;;;5094780;28;20107;-67
2023/07/13 05:30:03;;;;;;;8.38;2.33;;;16.90;99.90;;;;;;5096408;28;20087;-66
2023/07/13 05:32:29;;;;;;;9.60;3.05;;;17.00;99.90;;;;;;5095760;28;20304;-67
2023/07/13 05:34:55;;;;;;;6.83;2.40;;;17.00;99.90;;;;;;5095062;28;20032;-66
2023/07/13 05:37:20;;;;;;;8.77;2.40;;;17.10;99.90;;;;;;5090053;28;20032;-71
2023/07/13 05:39:46;;;;;;;12.50;3.00;;;17.10;99.90;;;;;;5095630;28;20019;-67
2023/07/13 05:42:12;;;;;;;9.70;2.93;;;17.10;99.90;;;;;;5095392;28;20367;-66
2023/07/13 05:44:37;;;;;;;10.23;2.63;;;17.10;99.90;;;;;;5092488;28;20050;-66
2023/07/13 05:47:04;;;;;;;12.23;2.70;;;17.10;99.90;;;;;;5095671;28;20162;-66
2023/07/13 05:49:30;;;;;;;6.57;2.40;;;17.20;99.90;;;;;;5095170;28;20020;-66
2023/07/13 05:51:56;;;;;;;7.70;3.33;;;17.10;99.90;;;;;;5095080;28;20028;-66
2023/07/13 05:54:22;;;;;;;9.32;2.78;;;17.10;99.90;;;;;;5077937;28;20032;-77
2023/07/13 05:56:48;;;;;;;8.25;2.67;;;17.20;99.90;;;;;;5095538;28;20024;-66
2023/07/13 05:59:14;;;;;;;17.37;2.73;;;17.20;99.90;;;;;;5095503;28;20099;-66
2023/07/13 06:01:41;;;;;;;8.35;2.83;;;17.20;99.90;;;;;;5094142;28;20032;-90
2023/07/13 06:04:06;;;;;;;6.75;2.10;;;17.30;99.90;;;;;;5095189;28;20107;-66
2023/07/13 06:06:32;;;;;;;14.83;3.33;;;17.40;99.90;;;;;;5095042;28;20103;-66
2023/07/13 06:08:58;;;;;;;13.73;2.55;;;17.40;99.90;;;;;;5093332;28;20041;-66
2023/07/13 06:11:27;;;;;;;7.37;2.73;;;17.50;99.90;;;;;;5095446;28;20434;-66
2023/07/13 06:13:53;;;;;;;9.25;2.42;;;17.60;99.90;;;;;;5095315;28;20059;-66
2023/07/13 06:16:20;;;;;;;8.88;2.80;;;17.70;99.90;;;;;;5095647;28;20028;-66
2023/07/13 06:18:46;;;;;;;12.88;1.90;;;17.80;99.90;;;;;;5093083;28;20073;-66
2023/07/13 06:21:17;;;;;;;10.25;2.72;;;17.80;99.90;;;;;;5081122;28;20044;-66
2023/07/13 06:23:44;;;;;;;6.65;1.95;;;17.90;99.90;;;;;;5089156;28;20035;-66
2023/07/13 06:26:10;;;;;;;7.55;2.42;;;18.00;99.90;;;;;;5085420;28;20085;-85
2023/07/13 06:28:37;;;;;;;4.65;1.90;;;18.10;99.90;;;;;;5094046;28;20338;-91
2023/07/13 06:31:06;;;;;;;6.78;1.98;;;18.10;99.90;;;;;;5093480;28;20063;-65
2023/07/13 06:33:32;;;;;;;10.05;2.13;;;18.20;99.90;;;;;;5095360;28;20052;-65
2023/07/13 06:35:58;;;;;;;6.97;1.95;;;18.20;99.90;;;;;;5094357;28;20023;-66
2023/07/13 06:38:24;;;;;;;7.78;2.22;;;18.20;99.90;;;;;;5093730;28;20024;-66
2023/07/13 06:40:50;;;;;;;9.32;2.20;;;18.20;99.90;;;;;;5095153;28;20028;-65
2023/07/13 06:43:16;;;;;;;8.77;2.13;;;18.30;99.90;;;;;;5094784;28;20491;-65
2023/07/13 06:45:49;;;;;;;7.47;1.75;;;18.40;99.90;;;;;;5095175;28;20039;-67
2023/07/13 06:48:16;;;;;;;5.13;2.65;;;18.50;99.90;;;;;;5094039;28;20048;-65
2023/07/13 06:50:42;;;;;;;;;;;18.70;99.90;;;;;;5094841;28;20326;-65
2023/07/13 06:53:11;;;;;;;5.95;1.88;;;19.00;99.90;;;;;;5094389;28;19907;-68
2023/07/13 06:55:37;;;;;;;4.15;2.25;;;19.20;99.90;;;;;;5095031;28;20067;-66
2023/07/13 06:58:04;;;;;;;9.02;2.38;;;19.20;99.90;;;;;;5094412;28;20044;-65
2023/07/13 07:00:30;;;;;;;4.90;2.35;;;19.00;99.90;;;;;;5094506;28;20101;-66
2023/07/13 07:02:56;;;;;;;7.15;2.17;;;18.70;99.90;;;;;;5093998;28;20433;-66
2023/07/13 07:05:22;;;;;;;5.53;1.70;;;18.50;99.90;;;;;;5082983;28;20036;-66
2023/07/13 07:07:51;;;;;;;7.13;1.63;;;18.30;99.90;;;;;;5068738;28;20028;-67
2023/07/13 07:10:18;;;;;;;3.92;1.35;;;18.10;99.90;;;;;;5093635;28;20039;-66
2023/07/13 07:12:43;;;;;;;2.72;1.15;;;17.90;99.90;;;;;;5090650;28;20088;-66
2023/07/13 07:15:09;;;;;;;3.97;1.40;;;17.70;99.90;;;;;;5089738;28;20111;-66
2023/07/13 07:17:36;;;;;;;2.47;1.23;;;17.70;99.90;;;;;;5080700;28;20024;-66
2023/07/13 07:20:03;;;;;;;4.93;1.35;;;17.60;99.90;;;;;;5080665;28;20094;-66
2023/07/13 07:22:30;;;;;;;5.70;1.55;;;17.70;99.90;;;;;;5087190;28;20024;-65
2023/07/13 07:24:56;;;;;;;;;;;17.90;99.90;;;;;;5080086;28;20026;-66
2023/07/13 07:27:22;;;;;;;2.63;1.92;;;18.10;99.90;;;;;;5080756;28;20265;-83
2023/07/13 07:29:48;;;;;;;3.20;1.20;;;18.30;99.90;;;;;;5087197;28;20058;-67
2023/07/13 07:32:14;;;;;;;4.97;1.33;;;18.50;99.90;;;;;;5091798;28;20032;-66
2023/07/13 07:34:40;;;;;;;2.78;1.38;;;18.60;99.90;;;;;;5084311;28;20030;-67
2023/07/13 07:37:05;;;;;;;6.68;1.92;;;18.70;99.90;;;;;;5083694;28;20024;-91
2023/07/13 07:39:32;;;;;;;5.90;1.90;;;18.80;99.90;;;;;;5094162;28;20300;-67
2023/07/13 07:41:58;;;;;;;;;;;18.80;99.90;;;;;;5093542;28;20095;-66
2023/07/13 07:44:25;;;;;;;5.88;1.80;;;18.90;99.90;;;;;;5065103;28;20017;-66
2023/07/13 07:46:50;;;;;;;;;;;19.10;99.90;;;;;;5088499;28;20035;-66
2023/07/13 07:49:16;;;;;;;8.87;1.93;;;19.20;99.90;;;;;;5087882;28;20328;-66
2023/07/13 07:51:42;;;;;;;7.13;1.60;;;19.40;99.90;;;;;;5095303;28;20280;-66
2023/07/13 07:54:08;;;;;;;5.40;1.38;;;19.30;99.90;;;;;;5096996;28;20016;-84
2023/07/13 07:56:34;;;;;;;3.30;1.43;;;19.50;99.90;;;;;;5096804;28;20060;-66
2023/07/13 07:59:00;;;;;;;3.07;1.43;;;19.80;99.90;;;;;;5096812;28;20016;-66
2023/07/13 08:01:25;;;;;;;2.23;1.40;;;20.20;99.90;;;;;;5085798;28;20253;-66
2023/07/13 08:03:52;;;;;;;2.50;1.35;;;20.30;99.90;;;;;;5090088;28;20127;-66
2023/07/13 08:06:19;;;;;;;8.27;1.50;;;20.30;99.90;;;;;;5088040;28;20028;-66
2023/07/13 08:08:46;;;;;;;3.75;1.55;;;20.30;99.90;;;;;;5085740;28;20032;-66
2023/07/13 08:11:12;;;;;;;4.95;1.33;;;20.20;99.90;;;;;;5083799;28;20032;-72
2023/07/13 08:13:38;;;;;;;3.28;1.67;;;20.00;99.90;;;;;;5085801;28;20031;-65
2023/07/13 08:16:06;;;;;;;5.37;1.30;;;19.90;99.90;;;;;;5085409;28;20016;-66
2023/07/13 08:18:32;;;;;;;2.72;1.33;;;19.70;99.90;;;;;;5089536;28;20024;-66
2023/07/13 08:20:58;;;;;;;2.95;1.20;;;19.70;99.90;;;;;;5090323;28;20077;-67
2023/07/13 08:23:25;;;;;;;3.17;1.35;;;19.80;99.90;;;;;;5088848;28;20036;-67
2023/07/13 08:25:53;;;;;;;1.70;1.10;;;19.80;99.90;;;;;;5086230;28;20032;-67
2023/07/13 08:28:22;;;;;;;1.23;1.00;;;19.80;99.90;;;;;;5090661;28;20024;-67
2023/07/13 08:30:48;;;;;;;1.90;1.10;;;19.70;99.90;;;;;;5095706;28;20055;-66
2023/07/13 08:33:16;;;;;;;2.80;0.90;;;19.80;99.90;;;;;;5088436;28;20024;-66
2023/07/13 08:35:42;;;;;;;1.88;1.08;;;19.80;99.90;;;;;;5094772;28;20131;-67
2023/07/13 08:38:08;;;;;;;7.32;1.20;;;19.80;99.90;;;;;;5096407;28;20095;-65
2023/07/13 08:40:34;;;;;;;5.20;1.40;;;19.90;99.90;;;;;;5096493;28;20429;-66
2023/07/13 08:43:00;;;;;;;3.33;1.17;;;19.90;99.90;;;;;;5081060;28;20114;-66
2023/07/13 08:45:30;;;;;;;6.90;1.27;;;19.80;99.90;;;;;;5097912;28;20023;-80
2023/07/13 08:48:10;;;;;;;3.90;1.23;;;20.00;99.90;;;;;;5094736;28;20047;-79
2023/07/13 08:50:52;;;;;;;3.25;1.70;;;20.10;99.90;;;;;;5092605;28;20016;-81
2023/07/13 08:53:19;;;;;;;2.45;1.20;;;20.40;99.90;;;;;;5092535;28;20029;-66
2023/07/13 08:55:45;;;;;;;3.67;1.20;;;20.40;99.90;;;;;;5092951;28;20108;-67
2023/07/13 08:58:15;;;;;;;5.97;1.37;;;20.50;99.90;;;;;;5093759;28;20118;-80
2023/07/13 09:01:05;;;;;;;5.78;1.60;;;20.40;99.90;;;;;;5096516;28;20046;-68
2023/07/13 09:03:40;;;;;;;4.95;1.67;;;20.30;99.90;;;;;;5094221;28;20020;-67
2023/07/13 09:06:11;;;;;;;6.95;1.58;;;20.20;99.90;;;;;;5073467;28;20307;-81
2023/07/13 09:08:57;;;;;;;1.75;1.10;;;20.60;99.90;;;;;;5092919;28;20024;-66
2023/07/13 09:11:45;;;;;;;1.88;1.30;;;20.60;99.90;;;;;;5071306;28;20033;-67
2023/07/13 09:14:47;;;;;;;4.75;1.35;;;20.60;99.90;;;;;;5093788;28;20462;-66
2023/07/13 09:17:18;;;;;;;3.95;1.58;;;20.50;99.90;;;;;;5089402;28;20103;-66
2023/07/13 09:19:49;;;;;;;4.82;1.30;;;20.30;99.90;;;;;;5087548;28;20394;-68
2023/07/13 09:22:19;;;;;;;5.53;1.50;;;20.50;99.90;;;;;;5090352;28;20050;-67
2023/07/13 09:24:58;;;;;;;4.95;1.73;;;20.70;99.90;;;;;;5080596;28;20055;-80
2023/07/13 09:27:39;;;;;;;6.10;1.25;;;21.10;99.90;;;;;;5078241;28;20403;-66
2023/07/13 09:30:13;;;;;;;4.25;1.13;;;21.30;99.90;;;;;;5092925;28;20327;-66
2023/07/13 09:32:43;;;;;;;1.92;1.35;;;21.20;99.90;;;;;;5088531;28;20115;-67
2023/07/13 09:35:15;;;;;;;3.35;1.45;;;21.10;99.90;;;;;;5089327;28;20087;-79
2023/07/13 09:37:45;;;;;;;2.75;1.60;;;21.10;99.90;;;;;;5083845;28;20028;-67
2023/07/13 09:40:49;;;;;;;2.83;0.90;;;21.20;99.90;;;;;;5082761;28;20601;-71
2023/07/13 09:43:17;;;;;;;3.42;1.30;;;21.30;99.90;;;;;;4994031;28;20026;-78
2023/07/13 09:45:46;;;;;;;1.58;1.23;;;21.70;99.90;;;;;;5067756;28;20028;-65
2023/07/13 09:48:14;;;;;;;2.05;1.00;;;21.70;99.90;;;;;;5083805;28;20059;-68
2023/07/13 09:50:41;;;;;;;4.20;1.20;;;21.50;99.90;;;;;;5086615;28;20033;-79
2023/07/13 09:53:17;;;;;;;;;;;21.50;99.90;;;;;;5089079;28;20017;-68
2023/07/13 09:55:45;;;;;;;7.30;1.50;;;21.20;99.90;;;;;;5083017;28;20278;-67
2023/07/13 09:58:22;;;;;;;2.75;1.25;;;20.90;99.90;;;;;;5088606;28;20031;-68
2023/07/13 10:01:04;;;;;;;3.80;1.35;;;21.00;99.90;;;;;;5090409;28;20020;-67
2023/07/13 10:03:37;;;;;;;8.18;1.88;;;21.20;99.90;;;;;;5085963;28;20020;-80
2023/07/13 10:06:18;;;;;;;4.70;1.30;;;21.40;99.90;;;;;;5089310;28;20032;-66
2023/07/13 10:08:49;;;;;;;7.05;1.10;;;21.50;99.90;;;;;;5085880;28;20020;-66
2023/07/13 10:11:22;;;;;;;3.45;1.20;;;21.40;99.90;;;;;;5085908;28;20063;-67
2023/07/13 10:14:02;;;;;;;3.40;2.08;;;21.50;99.90;;;;;;5093314;28;20008;-67
2023/07/13 10:16:33;;;;;;;2.25;1.10;;;21.70;99.90;;;;;;5087776;28;20067;-67
2023/07/13 10:19:06;;;;;;;6.00;1.27;;;21.80;99.90;;;;;;5092229;28;20020;-81
2023/07/13 10:21:39;;;;;;;1.63;1.10;;;21.70;99.90;;;;;;5091874;28;20494;-66
2023/07/13 10:24:26;;;;;;;4.63;2.03;;;21.80;99.90;;;;;;5092583;28;20028;-66
2023/07/13 10:27:15;;;;;;;3.92;1.52;;;22.00;99.90;;;;;;5073585;28;20035;-66
2023/07/13 10:29:46;;;;;;;5.72;1.40;;;22.30;99.90;;;;;;5095277;28;20027;-66
2023/07/13 10:32:13;;;;;;;8.32;1.67;;;22.30;99.90;;;;;;5095306;28;20418;-65
2023/07/13 10:34:44;;;;;;;4.82;1.52;;;22.20;99.90;;;;;;5094590;28;20020;-67
2023/07/13 10:37:22;;;;;;;1.77;1.25;;;22.10;99.90;;;;;;5072672;28;20317;-66
2023/07/13 10:39:50;;;;;;;4.75;1.63;;;22.10;99.90;;;;;;5075389;28;20054;-77
2023/07/13 10:42:27;;;;;;;4.80;1.45;;;22.40;99.90;;;;;;5092111;28;20065;-66
2023/07/13 10:44:52;;;;;;;3.42;1.45;;;22.70;99.90;;;;;;5090970;28;20098;-65
2023/07/13 10:47:18;;;;;;;3.22;1.42;;;22.90;99.90;;;;;;5093860;28;20115;-66
2023/07/13 10:49:46;;;;;;;4.20;1.55;;;23.00;99.90;;;;;;5091714;28;20032;-66
2023/07/13 10:52:47;;;;;;;4.25;1.75;;;23.10;99.90;;;;;;5094829;28;20063;-66
2023/07/13 10:55:41;;;;;;;2.03;1.10;;;23.20;99.90;;;;;;5093624;28;20024;-65
2023/07/13 10:58:14;;;;;;;3.90;1.58;;;23.10;99.90;;;;;;5090637;28;20039;-66
2023/07/13 11:00:53;;;;;;;1.83;1.10;;;23.20;99.90;;;;;;5078769;28;20073;-66
2023/07/13 11:03:22;;;;;;;3.85;1.08;;;23.30;99.90;;;;;;5093549;28;20020;-67
2023/07/13 11:05:51;;;;;;;5.63;1.50;;;23.40;99.90;;;;;;5094211;28;20089;-66
2023/07/13 11:08:31;;;;;;;8.20;1.35;;;23.40;99.90;;;;;;5090741;28;20342;-66
2023/07/13 11:10:58;;;;;;;2.17;0.98;;;23.30;99.90;;;;;;5094733;28;20028;-67
2023/07/13 11:13:45;;;;;;;5.60;1.42;;;23.30;99.90;;;;;;5093502;28;20083;-66
2023/07/13 11:16:36;;;;;;;6.40;1.20;;;23.50;99.90;;;;;;5094270;28;20055;-69
2023/07/13 11:19:02;;;;;;;3.95;1.35;;;23.60;99.90;;;;;;5093382;28;20023;-67
2023/07/13 11:21:30;;;;;;;1.67;1.20;;;23.50;99.90;;;;;;5093133;28;20074;-79
2023/07/13 11:24:17;;;;;;;8.10;1.48;;;23.70;99.90;;;;;;5095984;28;20166;-67
2023/07/13 11:26:46;;;;;;;4.93;1.52;;;23.80;99.90;;;;;;5098109;28;20066;-82
2023/07/13 11:29:17;;;;;;;6.35;1.33;;;23.60;99.90;;;;;;5097467;28;20035;-67
2023/07/13 11:31:55;;;;;;;4.65;1.30;;;23.40;99.90;;;;;;5098227;28;20295;-83
2023/07/13 11:34:31;;;;;;;5.03;1.50;;;23.20;99.90;;;;;;5091322;28;20031;-66
2023/07/13 11:36:59;;;;;;;2.33;1.10;;;22.90;99.90;;;;;;5085700;28;20024;-65
2023/07/13 11:39:30;;;;;;;2.17;1.40;;;22.70;99.90;;;;;;5085623;28;20028;-66
2023/07/13 11:42:11;;;;;;;6.03;1.45;;;22.70;99.90;;;;;;5089967;28;20028;-67
2023/07/13 11:44:43;;;;;;;3.20;1.13;;;22.70;99.90;;;;;;5096621;28;20314;-66
2023/07/13 11:47:16;;;;;;;3.05;1.60;;;22.80;99.90;;;;;;5068210;28;20044;-81
2023/07/13 11:49:46;;;;;;;5.63;1.58;;;22.80;99.90;;;;;;5096980;28;20121;-66
2023/07/13 11:52:25;;;;;;;1.65;1.08;;;22.90;99.90;;;;;;5092645;28;20058;-66
2023/07/13 11:54:56;;;;;;;5.85;1.58;;;22.80;99.90;;;;;;5092384;28;20062;-69
2023/07/13 11:57:35;;;;;;;1.13;1.02;;;22.70;99.90;;;;;;5088991;28;20029;-69
2023/07/13 12:00:06;;;;;;;2.78;1.27;;;22.70;99.90;;;;;;5079134;28;20027;-66
2023/07/13 12:02:38;;;;;;;1.90;1.25;;;23.00;99.90;;;;;;5079746;28;20105;-67
2023/07/13 12:05:05;;;;;;;1.38;1.00;;;23.50;99.90;;;;;;5095813;28;20047;-68
2023/07/13 12:07:33;;;;;;;4.70;1.40;;;23.70;99.90;;;;;;5094894;28;20441;-76
2023/07/13 12:10:10;;;;;;;1.23;1.13;;;23.80;99.90;;;;;;5096818;28;20084;-67
2023/07/13 12:12:37;;;;;;;7.78;1.48;;;23.80;99.90;;;;;;5097757;28;20414;-67
2023/07/13 12:15:07;;;;;;;3.20;1.20;;;23.60;99.90;;;;;;5097149;28;20024;-74
2023/07/13 12:17:35;;;;;;;1.83;1.20;;;23.70;99.90;;;;;;5098889;28;20024;-76
2023/07/13 12:20:17;;;;;;;4.38;1.30;;;23.70;99.90;;;;;;5102847;28;20031;-68
2023/07/13 12:22:47;;;;;;;3.70;1.40;;;23.80;99.90;;;;;;5086226;28;20028;-73
2023/07/13 12:25:13;;;;;;;4.75;1.33;;;23.60;99.90;;;;;;5096153;28;20024;-66
2023/07/13 12:27:39;;;;;;;8.15;1.50;;;23.30;99.90;;;;;;5097802;28;20031;-80
2023/07/13 12:30:30;;;;;;;3.63;1.40;;;23.00;99.90;;;;;;5094623;28;20028;-79
2023/07/13 12:33:08;;;;;;;4.75;1.30;;;23.10;99.90;;;;;;5095524;28;20670;-77
2023/07/13 12:35:44;;;;;;;3.25;1.23;;;22.90;99.90;;;;;;5078770;28;20024;-66
2023/07/13 12:38:11;;;;;;;3.00;1.25;;;22.90;99.90;;;;;;5083320;28;20381;-66
2023/07/13 12:40:40;;;;;;;4.15;1.27;;;23.10;99.90;;;;;;5087817;28;20028;-68
2023/07/13 12:43:14;;;;;;;1.50;0.90;;;23.30;99.90;;;;;;5089289;28;20107;-77
2023/07/13 12:46:13;;;;;;;3.55;1.65;;;23.40;99.90;;;;;;5090388;28;20012;-79
2023/07/13 12:48:42;;;;;;;5.28;1.58;;;23.60;99.90;;;;;;5077898;28;20043;-66
2023/07/13 12:51:11;;;;;;;4.28;1.77;;;23.70;99.90;;;;;;5090022;28;20407;-68
2023/07/13 12:54:03;;;;;;;5.05;1.42;;;23.70;99.90;;;;;;5090667;28;20027;-66
2023/07/13 12:56:30;;;;;;;4.07;1.60;;;23.70;99.90;;;;;;5082110;28;20036;-78
2023/07/13 12:59:03;;;;;;;3.80;1.45;;;23.80;99.90;;;;;;5093149;28;20104;-66